Avalon — PBSF — position and weather

sailwx.info

Track history (hours):
 
Tides and Currents Weather Stations Pressure Air Temp Water Temp Dewpoint Dewpoint Depression Visibility Wind Speed Wind Dir Waves Ship Positions

Avalon

Last reported at 2014-Dec-21 10:33 UTC. Time now 2014-Dec-21 11:26 UTC.
Position N 51°27' E 003°43'.

Length 89 m; draft 3.5 m.

Type: Cargo ship. MMSI: 246578000.

Date/timePositionNaut miles runAvg speedWind from/ knotsBaromVisibWave heightAir tempDewpointWater temp
2014-Dec-21 10:33N 51°27' E 003°43'0 0.0
2014-Dec-21 09:33N 51°27' E 003°43'0 0.0
2014-Dec-21 08:33N 51°27' E 003°43'0 0.0
2014-Dec-21 07:33N 51°27' E 003°43'0 0.0
2014-Dec-21 06:33N 51°27' E 003°43'0 0.0
2014-Dec-21 05:33N 51°27' E 003°43'0 0.0
2014-Dec-21 04:33N 51°27' E 003°43'0 0.0
2014-Dec-21 03:33N 51°27' E 003°43'0 0.0
2014-Dec-21 02:33N 51°27' E 003°43'0 0.0
2014-Dec-21 01:33N 51°27' E 003°43'0 0.0
2014-Dec-21 00:33N 51°27' E 003°43'0 0.0
2014-Dec-20 23:33N 51°27' E 003°43'0 0.0
2014-Dec-20 22:33N 51°27' E 003°43'0 0.0
2014-Dec-20 21:33N 51°27' E 003°43'0 0.0
2014-Dec-20 20:33N 51°27' E 003°43'0 0.0
2014-Dec-20 19:33N 51°27' E 003°43'0 0.0
2014-Dec-20 18:33N 51°27' E 003°43'0 0.0
2014-Dec-20 17:33N 51°27' E 003°43'0 0.0
2014-Dec-20 16:33N 51°27' E 003°43'0 0.0
2014-Dec-20 15:33N 51°27' E 003°43'0 0.0
2014-Dec-20 14:33N 51°27' E 003°43'0 0.0
2014-Dec-20 13:33N 51°27' E 003°43'0 0.0
2014-Dec-20 12:33N 51°27' E 003°43'0 0.0
2014-Dec-20 11:33N 51°27' E 003°43'0 0.0
2014-Dec-20 10:33N 51°27' E 003°43'0 0.0
2014-Dec-20 09:33N 51°27' E 003°43'0 0.0
2014-Dec-20 08:33N 51°27' E 003°43'0 0.0
2014-Dec-20 07:33N 51°27' E 003°43'0 0.0
2014-Dec-20 06:33N 51°27' E 003°43'0 0.0
2014-Dec-20 05:33N 51°27' E 003°43'0 0.0
2014-Dec-20 04:33N 51°27' E 003°43'0 0.0
2014-Dec-20 03:33N 51°27' E 003°43'0 0.0
2014-Dec-20 02:33N 51°27' E 003°43'0 0.0
2014-Dec-20 01:33N 51°27' E 003°43'0 0.0
2014-Dec-20 00:33N 51°27' E 003°43'0 0.0
2014-Dec-19 23:33N 51°27' E 003°43'0 0.0
2014-Dec-19 22:33N 51°27' E 003°43'0 0.0
2014-Dec-19 21:33N 51°27' E 003°43'0 0.0
2014-Dec-19 20:33N 51°27' E 003°43'0 0.0
2014-Dec-19 19:33N 51°27' E 003°43'0 0.0
2014-Dec-19 18:33N 51°27' E 003°43'0 0.0
2014-Dec-19 17:33N 51°27' E 003°43'0 0.0
2014-Dec-19 16:33N 51°27' E 003°43'0 0.0
2014-Dec-19 15:33N 51°27' E 003°43'0 0.0
2014-Dec-19 14:33N 51°27' E 003°43'0 0.0
2014-Dec-19 13:33N 51°27' E 003°43'0 0.0
2014-Dec-19 12:33N 51°27' E 003°43'0 0.0
2014-Dec-19 11:33N 51°27' E 003°43'0 0.0
2014-Dec-19 10:33N 51°27' E 003°43'0 0.0
2014-Dec-19 09:33N 51°27' E 003°43'0 0.0
2014-Dec-19 08:33N 51°27' E 003°43'0 0.0
2014-Dec-19 07:33N 51°27' E 003°43'0 0.0
2014-Dec-19 06:33N 51°27' E 003°43'0 0.0
2014-Dec-19 05:33N 51°27' E 003°43'0 0.1
2014-Dec-19 04:33N 51°27' E 003°43'0 0.0
2014-Dec-19 03:33N 51°27' E 003°43'0 0.0
2014-Dec-19 02:33N 51°27' E 003°43'0 0.0
2014-Dec-19 01:33N 51°27' E 003°43'0 0.0
2014-Dec-19 00:33N 51°27' E 003°43'0 0.0
2014-Dec-18 23:33N 51°27' E 003°43'0 0.0
2014-Dec-18 22:33N 51°27' E 003°43'0 0.0
2014-Dec-18 21:33N 51°27' E 003°43'2 1.6
2014-Dec-18 20:33N 51°27' E 003°41'1212.4
2014-Dec-18 19:33N 51°24' E 003°21'1212.2
2014-Dec-18 18:33N 51°22' E 003°02'1111.2
2014-Dec-18 17:33N 51°22' E 002°44'7 7.4
2014-Dec-18 16:33N 51°22' E 002°32'10 8.6
2014-Dec-18 15:25N 51°29' E 002°21'910.4
2014-Dec-18 14:34N 51°35' E 002°11'1010.0
2014-Dec-18 13:33N 51°42' E 001°58'1010.2
2014-Dec-18 12:33N 51°48' E 001°46'1010.3
2014-Dec-18 11:33N 51°54' E 001°32'10 9.7
2014-Dec-18 10:33N 51°58' E 001°17'7 6.8
2014-Dec-18 09:34N 52°02' E 001°10'0 0.3
2014-Dec-18 08:33N 52°02' E 001°09'0 0.0
2014-Dec-18 07:33N 52°02' E 001°09'0 0.0
2014-Dec-18 06:33N 52°02' E 001°09'0 0.0
2014-Dec-18 05:33N 52°02' E 001°09'0 0.0
2014-Dec-18 04:33N 52°02' E 001°09'0 0.0
2014-Dec-18 03:33N 52°02' E 001°09'0 0.0
2014-Dec-18 02:33N 52°02' E 001°09'0 0.0
2014-Dec-18 01:33N 52°02' E 001°09'0 0.0
2014-Dec-18 00:34N 52°02' E 001°09'0 0.0
2014-Dec-17 23:33N 52°02' E 001°09'0 0.0
2014-Dec-17 22:33N 52°02' E 001°09'0 0.0
2014-Dec-17 21:33N 52°02' E 001°09'0 0.0
2014-Dec-17 20:33N 52°02' E 001°09'0 0.0
2014-Dec-17 19:33N 52°02' E 001°09'0 0.0
2014-Dec-17 18:33N 52°02' E 001°09'0 0.0
2014-Dec-17 17:33N 52°02' E 001°09'0 0.0
2014-Dec-17 16:33N 52°02' E 001°09'0 0.0
2014-Dec-17 15:33N 52°02' E 001°09'0 0.0
2014-Dec-17 14:33N 52°02' E 001°09'0 0.0
2014-Dec-17 13:33N 52°02' E 001°09'0 0.0
2014-Dec-17 12:33N 52°02' E 001°09'0 0.0
2014-Dec-17 11:33N 52°02' E 001°09'0 0.0
2014-Dec-17 10:33N 52°02' E 001°09'0 0.0
2014-Dec-17 09:33N 52°02' E 001°09'0 0.0
2014-Dec-17 08:33N 52°02' E 001°09'0 0.0
2014-Dec-17 07:34N 52°02' E 001°09'0 0.0
2014-Dec-17 06:33N 52°02' E 001°09'0 0.0
2014-Dec-17 05:33N 52°02' E 001°09'0 0.0
2014-Dec-17 04:33N 52°02' E 001°09'0 0.0
2014-Dec-17 03:33N 52°02' E 001°09'0 0.0
2014-Dec-17 02:33N 52°02' E 001°09'0 0.0
2014-Dec-17 01:33N 52°02' E 001°09'0 0.0
2014-Dec-17 00:33N 52°02' E 001°09'0 0.0
2014-Dec-16 23:33N 52°02' E 001°09'0 0.0
2014-Dec-16 22:33N 52°02' E 001°09'0 0.0
2014-Dec-16 21:33N 52°02' E 001°09'0 0.0
2014-Dec-16 20:33N 52°02' E 001°09'0 0.0
2014-Dec-16 19:33N 52°02' E 001°09'0 0.0
2014-Dec-16 18:33N 52°02' E 001°09'0 0.0
2014-Dec-16 17:33N 52°02' E 001°09'0 0.0
2014-Dec-16 16:33N 52°02' E 001°09'0 0.0
2014-Dec-16 15:33N 52°02' E 001°09'0 0.0
2014-Dec-16 14:33N 52°02' E 001°09'0 0.1
2014-Dec-16 13:33N 52°02' E 001°09'6 6.0
2014-Dec-16 12:33N 51°58' E 001°17'8 8.1
2014-Dec-16 11:33N 51°56' E 001°29'8 8.3
2014-Dec-16 10:33N 51°52' E 001°41'8 8.4
2014-Dec-16 09:33N 51°45' E 001°48'1010.3
2014-Dec-16 08:33N 51°34' E 001°48'1010.4
2014-Dec-16 07:33N 51°24' E 001°45'1010.4
2014-Dec-16 06:33N 51°14' E 001°41'9 9.5
2014-Dec-16 05:33N 51°05' E 001°41'10 9.5
2014-Dec-16 04:33N 50°58' E 001°30'9 8.6
2014-Dec-16 03:32N 50°50' E 001°24'  
Track history (hours):
 
Tides and Currents Weather Stations Pressure Air Temp Water Temp Dewpoint Dewpoint Depression Visibility Wind Speed Wind Dir Waves Ship Positions

Avalon

Last reported at 2014-Dec-21 10:33 UTC. Time now 2014-Dec-21 11:26 UTC.
Position N 51°27' E 003°43'.

Length 89 m; draft 3.5 m.

Type: Cargo ship. MMSI: 246578000.

Date/timePositionNaut miles runAvg speedWind from/ knotsBaromVisibWave heightAir tempDewpointWater temp
2014-Dec-21 10:33N 51°27' E 003°43'0 0.0
2014-Dec-21 09:33N 51°27' E 003°43'0 0.0
2014-Dec-21 08:33N 51°27' E 003°43'0 0.0
2014-Dec-21 07:33N 51°27' E 003°43'0 0.0
2014-Dec-21 06:33N 51°27' E 003°43'0 0.0
2014-Dec-21 05:33N 51°27' E 003°43'0 0.0
2014-Dec-21 04:33N 51°27' E 003°43'0 0.0
2014-Dec-21 03:33N 51°27' E 003°43'0 0.0
2014-Dec-21 02:33N 51°27' E 003°43'0 0.0
2014-Dec-21 01:33N 51°27' E 003°43'0 0.0
2014-Dec-21 00:33N 51°27' E 003°43'0 0.0
2014-Dec-20 23:33N 51°27' E 003°43'0 0.0
2014-Dec-20 22:33N 51°27' E 003°43'0 0.0
2014-Dec-20 21:33N 51°27' E 003°43'0 0.0
2014-Dec-20 20:33N 51°27' E 003°43'0 0.0
2014-Dec-20 19:33N 51°27' E 003°43'0 0.0
2014-Dec-20 18:33N 51°27' E 003°43'0 0.0
2014-Dec-20 17:33N 51°27' E 003°43'0 0.0
2014-Dec-20 16:33N 51°27' E 003°43'0 0.0
2014-Dec-20 15:33N 51°27' E 003°43'0 0.0
2014-Dec-20 14:33N 51°27' E 003°43'0 0.0
2014-Dec-20 13:33N 51°27' E 003°43'0 0.0
2014-Dec-20 12:33N 51°27' E 003°43'0 0.0
2014-Dec-20 11:33N 51°27' E 003°43'0 0.0
2014-Dec-20 10:33N 51°27' E 003°43'0 0.0
2014-Dec-20 09:33N 51°27' E 003°43'0 0.0
2014-Dec-20 08:33N 51°27' E 003°43'0 0.0
2014-Dec-20 07:33N 51°27' E 003°43'0 0.0
2014-Dec-20 06:33N 51°27' E 003°43'0 0.0
2014-Dec-20 05:33N 51°27' E 003°43'0 0.0
2014-Dec-20 04:33N 51°27' E 003°43'0 0.0
2014-Dec-20 03:33N 51°27' E 003°43'0 0.0
2014-Dec-20 02:33N 51°27' E 003°43'0 0.0
2014-Dec-20 01:33N 51°27' E 003°43'0 0.0
2014-Dec-20 00:33N 51°27' E 003°43'0 0.0
2014-Dec-19 23:33N 51°27' E 003°43'0 0.0
2014-Dec-19 22:33N 51°27' E 003°43'0 0.0
2014-Dec-19 21:33N 51°27' E 003°43'0 0.0
2014-Dec-19 20:33N 51°27' E 003°43'0 0.0
2014-Dec-19 19:33N 51°27' E 003°43'0 0.0
2014-Dec-19 18:33N 51°27' E 003°43'0 0.0
2014-Dec-19 17:33N 51°27' E 003°43'0 0.0
2014-Dec-19 16:33N 51°27' E 003°43'0 0.0
2014-Dec-19 15:33N 51°27' E 003°43'0 0.0
2014-Dec-19 14:33N 51°27' E 003°43'0 0.0
2014-Dec-19 13:33N 51°27' E 003°43'0 0.0
2014-Dec-19 12:33N 51°27' E 003°43'0 0.0
2014-Dec-19 11:33N 51°27' E 003°43'0 0.0
2014-Dec-19 10:33N 51°27' E 003°43'0 0.0
2014-Dec-19 09:33N 51°27' E 003°43'0 0.0
2014-Dec-19 08:33N 51°27' E 003°43'0 0.0
2014-Dec-19 07:33N 51°27' E 003°43'0 0.0
2014-Dec-19 06:33N 51°27' E 003°43'0 0.0
2014-Dec-19 05:33N 51°27' E 003°43'0 0.1
2014-Dec-19 04:33N 51°27' E 003°43'0 0.0
2014-Dec-19 03:33N 51°27' E 003°43'0 0.0
2014-Dec-19 02:33N 51°27' E 003°43'0 0.0
2014-Dec-19 01:33N 51°27' E 003°43'0 0.0
2014-Dec-19 00:33N 51°27' E 003°43'0 0.0
2014-Dec-18 23:33N 51°27' E 003°43'0 0.0
2014-Dec-18 22:33N 51°27' E 003°43'0 0.0
2014-Dec-18 21:33N 51°27' E 003°43'2 1.6
2014-Dec-18 20:33N 51°27' E 003°41'1212.4
2014-Dec-18 19:33N 51°24' E 003°21'1212.2
2014-Dec-18 18:33N 51°22' E 003°02'1111.2
2014-Dec-18 17:33N 51°22' E 002°44'7 7.4
2014-Dec-18 16:33N 51°22' E 002°32'10 8.6
2014-Dec-18 15:25N 51°29' E 002°21'910.4
2014-Dec-18 14:34N 51°35' E 002°11'1010.0
2014-Dec-18 13:33N 51°42' E 001°58'1010.2
2014-Dec-18 12:33N 51°48' E 001°46'1010.3
2014-Dec-18 11:33N 51°54' E 001°32'10 9.7
2014-Dec-18 10:33N 51°58' E 001°17'7 6.8
2014-Dec-18 09:34N 52°02' E 001°10'0 0.3
2014-Dec-18 08:33N 52°02' E 001°09'0 0.0
2014-Dec-18 07:33N 52°02' E 001°09'0 0.0
2014-Dec-18 06:33N 52°02' E 001°09'0 0.0
2014-Dec-18 05:33N 52°02' E 001°09'0 0.0
2014-Dec-18 04:33N 52°02' E 001°09'0 0.0
2014-Dec-18 03:33N 52°02' E 001°09'0 0.0
2014-Dec-18 02:33N 52°02' E 001°09'0 0.0
2014-Dec-18 01:33N 52°02' E 001°09'0 0.0
2014-Dec-18 00:34N 52°02' E 001°09'0 0.0
2014-Dec-17 23:33N 52°02' E 001°09'0 0.0
2014-Dec-17 22:33N 52°02' E 001°09'0 0.0
2014-Dec-17 21:33N 52°02' E 001°09'0 0.0
2014-Dec-17 20:33N 52°02' E 001°09'0 0.0
2014-Dec-17 19:33N 52°02' E 001°09'0 0.0
2014-Dec-17 18:33N 52°02' E 001°09'0 0.0
2014-Dec-17 17:33N 52°02' E 001°09'0 0.0
2014-Dec-17 16:33N 52°02' E 001°09'0 0.0
2014-Dec-17 15:33N 52°02' E 001°09'0 0.0
2014-Dec-17 14:33N 52°02' E 001°09'0 0.0
2014-Dec-17 13:33N 52°02' E 001°09'0 0.0
2014-Dec-17 12:33N 52°02' E 001°09'0 0.0
2014-Dec-17 11:33N 52°02' E 001°09'0 0.0
2014-Dec-17 10:33N 52°02' E 001°09'0 0.0
2014-Dec-17 09:33N 52°02' E 001°09'0 0.0
2014-Dec-17 08:33N 52°02' E 001°09'0 0.0
2014-Dec-17 07:34N 52°02' E 001°09'0 0.0
2014-Dec-17 06:33N 52°02' E 001°09'0 0.0
2014-Dec-17 05:33N 52°02' E 001°09'0 0.0
2014-Dec-17 04:33N 52°02' E 001°09'0 0.0
2014-Dec-17 03:33N 52°02' E 001°09'0 0.0
2014-Dec-17 02:33N 52°02' E 001°09'0 0.0
2014-Dec-17 01:33N 52°02' E 001°09'0 0.0
2014-Dec-17 00:33N 52°02' E 001°09'0 0.0
2014-Dec-16 23:33N 52°02' E 001°09'0 0.0
2014-Dec-16 22:33N 52°02' E 001°09'0 0.0
2014-Dec-16 21:33N 52°02' E 001°09'0 0.0
2014-Dec-16 20:33N 52°02' E 001°09'0 0.0
2014-Dec-16 19:33N 52°02' E 001°09'0 0.0
2014-Dec-16 18:33N 52°02' E 001°09'0 0.0
2014-Dec-16 17:33N 52°02' E 001°09'0 0.0
2014-Dec-16 16:33N 52°02' E 001°09'0 0.0
2014-Dec-16 15:33N 52°02' E 001°09'0 0.0
2014-Dec-16 14:33N 52°02' E 001°09'0 0.1
2014-Dec-16 13:33N 52°02' E 001°09'6 6.0
2014-Dec-16 12:33N 51°58' E 001°17'8 8.1
2014-Dec-16 11:33N 51°56' E 001°29'8 8.3
2014-Dec-16 10:33N 51°52' E 001°41'8 8.4
2014-Dec-16 09:33N 51°45' E 001°48'1010.3
2014-Dec-16 08:33N 51°34' E 001°48'1010.4
2014-Dec-16 07:33N 51°24' E 001°45'1010.4
2014-Dec-16 06:33N 51°14' E 001°41'9 9.5
2014-Dec-16 05:33N 51°05' E 001°41'10 9.5
2014-Dec-16 04:33N 50°58' E 001°30'9 8.6
2014-Dec-16 03:32N 50°50' E 001°24'  

Dump ship's entire track history